Weather observations for the past three days for
Hamilton Municipal Airport
Imperial (Metric)
Date Time (cdt) Wind (mph) Vis. (mi.) Weather Sky Cond. Temperature (ºF) Relative Humidity Wind Chill (°F) Heat Index (°F) Pressure Precipitation (in)
Air Dwpt 6 hour altimeter (in) sea level (mb) 1 hr 3 hr 6 hr
Max. Min.
09 04:35 S 13 G 20 3.00 Thunderstorm in Vicinity Fog/Mist SCT004 BKN048 OVC075 66.2 66.2 100% 29.86 0.0
09 04:15 E 6 4.00 Thunderstorm Light Drizzle Fog/Mist SCT024 BKN034 OVC070 66.2 66.2 100% 29.88 0.0
09 03:55 N 8 4.00 Thunderstorm in Vicinity Fog/Mist SCT007 BKN014 OVC029 66.2 66.2 100% 29.9 0.0
09 03:35 N 12 2.50 Fog/Mist BKN002 OVC007 66.2 66.2 100% 29.9 0.0
09 03:15 N 9 0.75 Fog/Mist OVC002 64.4 64.4 100% 29.89 0.0
09 02:55 E 3 1.50 Thunderstorm in Vicinity Fog/Mist OVC002 64.4 64.4 100% 29.88 0.0
09 02:35 N 2 0.50 Fog OVC002 64.4 64.4 100% 29.89 0.0
09 02:15 S 6 0.25 Fog OVC002 64.4 64.4 100% 29.87 0.0
09 01:55 S 8 0.25 Fog OVC002 64.4 64.4 100% 29.88 0.0
09 01:35 S 8 0.25 Fog BKN002 OVC013 64.4 64.4 100% 29.86 0.0
09 01:15 SE 6 2.00 Fog/Mist SCT002 64.4 64.4 100% 29.85 0.0
09 00:55 SE 7 1.00 Fog/Mist CLR 64.4 64.4 71.6 62.8 100% 29.84 0.0
09 00:35 S 6 1.50 Fog/Mist CLR 62.6 62.6 100% 29.85 0.0
09 00:15 SE 5 2.00 Fog/Mist CLR 64.4 64.4 100% 29.85 0.0
08 23:55 SE 5 3.00 Fog/Mist SCT045 64.4 64.4 100% 29.86 0.0
08 23:35 SE 3 4.00 Fog/Mist SCT047 64.4 64.4 100% 29.86 0.0
08 23:15 SE 3 4.00 Fog/Mist FEW044 BKN050 66.2 64.4 94% 29.85 0.0
08 22:55 SE 3 4.00 Fog/Mist BKN050 66.2 66.2 100% 29.85 0.0
08 22:35 S 2 5.00 Fog/Mist BKN047 OVC050 66.2 66.2 100% 29.84 0.0
08 22:15 SE 3 5.00 Fog/Mist BKN046 OVC050 66.2 66.2 100% 29.84 0.0
08 21:55 S 6 5.00 Fog/Mist BKN048 66.2 66.2 100% 29.83 0.0
08 21:35 S 7 5.00 Fog/Mist SCT050 66.2 66.2 100% 29.82 0.0
08 21:15 S 8 6.00 Fog/Mist FEW050 66.2 66.2 100% 29.82 0.0
08 20:55 S 8 5.00 Fog/Mist CLR 66.2 66.2 100% 29.81 0.0
08 20:35 S 10 6.00 Fog/Mist CLR 68 68 100% 29.8 0.0
08 20:15 SE 9 7.00 Fog/Mist CLR 68 68 100% 29.8 0.0
08 19:35 SE 9 7.00 Partly Cloudy SCT060 71.6 68 88% 29.8 0.0
08 19:15 SE 10 8.00 Overcast OVC060 71.6 68 88% 29.8 0.0
08 18:55 S 9 8.00 Overcast FEW017 OVC060 71.6 68 75.4 65.1 88% 29.81 0.0
08 18:35 SE 10 8.00 Overcast OVC060 71.6 68 88% 29.8 0.0
08 18:15 SE 10 8.00 Overcast FEW019 OVC060 71.6 68 88% 29.8 0.0
08 17:55 SE 10 8.00 Overcast SCT019 OVC060 73.4 68 83% 29.8 0.0
08 17:15 SE 9 G 17 8.00 Mostly Cloudy SCT019 BKN060 75.2 68 78% 76 29.81 0.0
08 16:55 S 9 8.00 Partly Cloudy SCT019 73.4 68 83% 29.81 0.0
08 16:35 SE 9 8.00 Overcast OVC019 73.4 68 83% 29.82 0.0
08 16:15 S 10 8.00 Overcast OVC019 73.4 68 83% 29.83 0.0
08 15:55 SE 10 8.00 Overcast OVC017 73.4 66.2 78% 29.84 0.0
08 15:35 S 8 8.00 Overcast OVC017 71.6 66.2 83% 29.85 0.0
08 15:15 SE 10 8.00 Overcast OVC017 71.6 66.2 83% 29.86 0.0
08 14:35 SE 10 8.00 Overcast OVC017 69.8 66.2 88% 29.86 0.0
08 14:15 E 9 8.00 Thunderstorm in Vicinity OVC015 69.8 66.2 88% 29.87 0.0
08 13:55 SE 8 7.00 Overcast OVC013 68 64.4 88% 29.88 0.0
08 13:35 SE 7 7.00 Fog/Mist OVC013 68 64.4 88% 29.89 0.0
08 13:15 E 7 7.00 Fog/Mist OVC013 66.2 64.4 94% 29.9 0.0
08 12:35 SE 6 7.00 Overcast OVC013 66.2 62.6 88% 29.92 0.0
08 12:15 SE 6 8.00 Overcast OVC013 66.2 62.6 88% 29.93 0.0
08 11:55 SE 7 8.00 Overcast OVC013 64.4 62.6 94% 29.94 0.0
08 11:35 S 9 8.00 Overcast OVC013 64.4 62.6 94% 29.94 0.0
08 11:15 S 5 9.00 Overcast OVC013 64.4 60.8 88% 29.94 0.0
08 10:55 SW 2 9.00 Overcast OVC013 66.2 62.6 88% 29.94 0.0
08 10:35 E 5 9.00 Overcast OVC013 66.2 60.8 83% 29.93 0.0
08 10:15 SE 3 9.00 Overcast OVC013 62.6 59 88% 29.94 0.0
08 09:55 S 3 10.00 Overcast OVC013 60.8 59 94% 29.95 0.0
08 09:35 S 2 10.00 Overcast OVC015 60.8 59 94% 29.95 0.0
08 09:15 S 2 10.00 Overcast OVC015 60.8 59 94% 29.96 0.0
08 08:35 S 3 10.00 Overcast OVC015 59 59 100% 29.96 0.0
08 08:15 SW 3 9.00 Overcast OVC017 59 59 100% 29.97 0.0
08 07:55 SW 3 9.00 Overcast OVC017 59 59 100% 29.97 0.0
08 07:35 Calm 9.00 Overcast OVC017 57.2 57.2 100% 29.96 0.0
08 07:15 SE 2 9.00 Overcast OVC017 57.2 57.2 100% 29.96 0.0
08 06:55 SE 2 9.00 Overcast BKN015 OVC021 57.2 57.2 57.6 52.2 100% 29.96 0.0
08 06:35 E 3 9.00 Overcast BKN017 OVC023 57.2 57.2 100% 29.96 0.0
08 06:15 SE 3 9.00 Overcast OVC017 55.4 55.4 100% 29.96 0.0
08 05:55 SE 5 9.00 Overcast OVC019 55.4 55.4 100% 29.96 0.0
08 05:35 S 7 9.00 Overcast OVC017 55.4 55.4 100% 29.96 0.0
08 05:15 S 7 7.00 Mostly Cloudy BKN013 BKN018 55.4 55.4 100% 29.96 0.0
08 04:55 S 6 6.00 Fog/Mist FEW015 SCT050 53.6 53.6 100% 29.96 0.0
08 04:35 S 8 5.00 Fog/Mist SCT050 BKN065 BKN120 53.6 53.6 100% 29.95 0.0
08 04:15 SW 5 7.00 Fog/Mist BKN046 BKN060 55.4 55.4 100% 29.97 0.0
08 03:55 S 1 8.00 Overcast OVC044 55.4 55.4 100% 29.98 0.0
08 03:35 N 3 7.00 Fog/Mist OVC046 55.4 55.4 100% 29.98 0.0
08 03:15 N 3 6.00 Fog/Mist OVC049 53.6 53.6 100% 29.98 0.0
08 02:55 NW 6 5.00 Fog/Mist OVC049 53.6 53.6 100% 29.99 0.0
08 02:35 NW 2 7.00 Fog/Mist OVC049 53.6 53.6 100% 29.99 0.0
08 02:15 SW 3 5.00 Fog/Mist SCT046 SCT070 51.8 51.8 100% 29.98 0.0
08 01:55 SE 3 7.00 Fog/Mist SCT043 BKN080 53.6 53.6 100% 29.97 0.0
08 01:35 NE 3 9.00 Overcast BKN045 OVC080 55.4 55.4 100% 29.97 0.0
08 01:15 N 2 7.00 Overcast OVC047 55.4 55.4 100% 29.99 0.0
08 00:55 N 2 7.00 Overcast BKN049 OVC060 55.4 55.4 60.3 54.1 100% 29.99 0.0
08 00:35 NW 1 8.00 Overcast FEW049 BKN060 OVC075 55.4 55.4 100% 29.99 0.0
08 00:15 NW 2 9.00 Overcast FEW060 OVC070 55.4 55.4 100% 30 0.0
07 23:55 W 2 7.00 Overcast FEW049 OVC070 55.4 55.4 100% 30.01 0.0
07 23:35 NW 2 8.00 Overcast OVC070 55.4 55.4 100% 30.01 0.0
07 23:15 W 5 7.00 Overcast OVC070 55.4 55.4 100% 30.01 0.0
07 22:55 SW 5 9.00 Overcast OVC070 55.4 55.4 100% 30.02 0.0
07 22:35 SW 3 6.00 Fog/Mist BKN070 53.6 53.6 100% 30.02 0.0
07 22:15 S 3 7.00 Mostly Cloudy BKN070 55.4 55.4 100% 30 0.0
07 21:55 S 2 7.00 Partly Cloudy SCT080 55.4 55.4 100% 29.99 0.0
07 21:35 Calm 10.00 Mostly Cloudy BKN080 57.2 57.2 100% 29.99 0.0
07 21:15 SE 1 9.00 Partly Cloudy SCT085 55.4 55.4 100% 29.98 0.0
07 20:55 SE 2 10.00 Fair CLR 57.2 57.2 100% 29.98 0.0
07 20:35 NE 2 10.00 Fair CLR 59 59 100% 29.97 0.0
07 20:15 SE 2 10.00 Partly Cloudy SCT080 SCT120 59 59 100% 29.97 0.0
07 19:55 Calm 10.00 Overcast BKN080 OVC110 59 59 100% 29.98 0.0
07 19:35 S 6 10.00 Mostly Cloudy BKN100 BKN120 59 59 100% 29.99 0.0
07 19:15 S 3 10.00 Partly Cloudy SCT110 60.8 59 94% 29.99 0.0
07 18:55 S 5 10.00 Fair CLR 60.8 59 64.9 59 94% 30 0.0 0.01
07 18:35 Vrbl 2 10.00 A Few Clouds FEW120 59 59 100% 29.99 0.0
07 18:15 S 5 10.00 Light Rain SCT060 SCT090 BKN120 59 59 100% 30.01 0.0
07 17:55 S 8 8.00 Light Rain FEW060 FEW065 FEW120 59 59 100% 30.01 0.0 0.02
07 17:35 S 5 6.00 Light Drizzle Fog/Mist FEW060 SCT090 SCT110 60.8 59 94% 30.02 0.0
07 17:15 SW 8 8.00 Light Rain FEW110 60.8 59 94% 30.03 0.0
07 16:55 E 8 7.00 Light Rain Fog/Mist CLR 60.8 57.2 88% 29.99 0.0 0.01
07 16:35 E 1 7.00 Light Rain Fog/Mist FEW055 FEW065 FEW090 62.6 59 88% 30.03 0.0
07 16:15 SE 14 10.00 Partly Cloudy FEW055 FEW070 SCT090 62.6 55.4 77% 30 0.0
07 15:55 Vrbl 3 10.00 Fair CLR 64.4 53.6 68% 30.04 0.0
07 15:35 Vrbl 3 10.00 A Few Clouds FEW060 FEW100 64.4 53.6 68% 30.04 0.0
07 15:15 Vrbl 3 10.00 A Few Clouds FEW060 FEW100 64.4 53.6 68% 30.06 0.0
07 14:55 NE 6 10.00 A Few Clouds FEW110 64.4 53.6 68% 30.05 0.0
07 14:35 Vrbl 3 10.00 A Few Clouds FEW110 64.4 53.6 68% 30.07 0.0
07 14:15 E 5 10.00 Partly Cloudy SCT120 64.4 53.6 68% 30.07 0.0
07 13:55 SE 7 10.00 Mostly Cloudy BKN110 64.4 53.6 68% 30.07 0.0
07 13:35 E 6 10.00 Mostly Cloudy BKN110 64.4 53.6 68% 30.07 0.0
07 13:15 E 8 10.00 Overcast OVC110 62.6 53.6 73% 30.06 0.0
07 12:55 E 5 10.00 Mostly Cloudy BKN110 62.6 53.6 65.3 52.7 73% 30.08 0.0
07 12:35 E 8 10.00 Mostly Cloudy BKN110 64.4 51.8 64% 30.09 0.0
07 12:15 E 9 10.00 Fair CLR 64.4 51.8 64% 30.09 0.0
07 11:55 NE 8 10.00 Fair CLR 64.4 51.8 64% 30.1 0.0
07 11:35 NE 9 10.00 Fair CLR 62.6 51.8 68% 30.1 0.0
07 11:15 NE 9 10.00 Fair CLR 62.6 51.8 68% 30.1 0.0
07 10:55 NE 10 G 17 10.00 Fair CLR 62.6 51.8 68% 30.1 0.0
07 10:35 NE 12 G 17 10.00 Fair CLR 62.6 53.6 73% 30.1 0.0
07 10:15 NE 12 10.00 Fair CLR 60.8 51.8 72% 30.1 0.0
07 09:55 NE 9 10.00 Fair CLR 60.8 51.8 72% 30.1 0.0
07 09:35 NE 12 G 16 10.00 Fair CLR 59 51.8 77% 30.11 0.0
07 09:15 NE 12 10.00 Fair CLR 57.2 51.8 82% 30.11 0.0
07 08:55 NE 13 10.00 Fair CLR 57.2 51.8 82% 30.11 0.0
07 08:35 NE 13 10.00 Fair CLR 53.6 51.8 94% 30.12 0.0
07 08:15 NE 12 10.00 Fair CLR 53.6 51.8 94% 30.13 0.0
07 07:55 N 12 10.00 Fair CLR 53.6 51.8 94% 30.12 0.0
07 07:35 N 13 10.00 A Few Clouds FEW017 53.6 51.8 94% 30.11 0.0
07 07:15 N 15 10.00 Mostly Cloudy BKN017 53.6 53.6 100% 30.1 0.0
07 06:55 N 14 10.00 Overcast OVC015 53.6 53.6 55.9 53.8 100% 30.11 0.0
07 06:35 N 12 10.00 Overcast OVC015 53.6 53.6 100% 30.11 0.0
07 06:15 N 14 10.00 Overcast OVC013 53.6 53.6 100% 30.1 0.0
07 05:55 N 10 9.00 Overcast OVC013 55.4 53.6 94% 30.1 0.0
07 05:35 N 8 9.00 Overcast OVC013 55.4 55.4 100% 30.1 0.0
07 05:15 N 13 9.00 Overcast OVC011 55.4 55.4 100% 30.08 0.0
07 04:55 N 6 9.00 Overcast OVC011 55.4 55.4 100% 30.09 0.0
07 04:35 NE 8 9.00 Overcast OVC011 55.4 55.4 100% 30.09 0.0
07 04:15 NE 6 9.00 Overcast OVC011 55.4 53.6 94% 30.07 0.0
07 03:55 NE 6 9.00 Overcast OVC013 55.4 55.4 100% 30.06 0.0
07 03:35 N 12 G 20 10.00 Overcast OVC013 53.6 53.6 100% 30.03 0.0
07 03:15 N 13 9.00 Overcast OVC015 53.6 53.6 100% 30.02 0.0
07 02:55 N 10 8.00 Overcast FEW010 OVC019 53.6 53.6 100% 30.02 0.0
07 02:15 NE 8 8.00 Overcast BKN010 OVC013 55.4 55.4 100% 30.03 0.0
07 01:55 NE 6 8.00 Overcast OVC010 55.4 55.4 100% 30.03 0.0
07 01:35 NE 5 8.00 Mostly Cloudy BKN010 55.4 55.4 100% 30.02 0.0
07 01:15 NE 6 8.00 Partly Cloudy SCT012 55.4 55.4 100% 30.01 0.0
07 00:55 NE 6 9.00 Fair CLR 55.4 55.4 61.2 54.9 100% 30.01 0.0
07 00:35 NE 8 9.00 Fair CLR 55.4 55.4 100% 30.02 0.0
07 00:15 NE 9 9.00 A Few Clouds FEW015 55.4 55.4 100% 30.01 0.0
06 23:55 NE 10 10.00 A Few Clouds FEW015 55.4 55.4 100% 30.01 0.0
06 23:35 NE 8 10.00 Fair CLR 55.4 55.4 100% 30.01 0.0
06 23:15 NE 7 10.00 Fair CLR 55.4 55.4 100% 30.01 0.0
06 22:55 NE 7 10.00 Fair CLR 57.2 55.4 94% 30.02 0.0
06 22:35 NE 8 10.00 Fair CLR 55.4 55.4 100% 30.01 0.0
06 22:15 NE 5 9.00 A Few Clouds FEW065 57.2 55.4 94% 30.01 0.0
06 21:55 NE 7 9.00 Partly Cloudy SCT075 57.2 55.4 94% 30 0.0
06 21:35 NE 6 10.00 Partly Cloudy SCT075 57.2 55.4 94% 30 0.0
06 21:15 N 6 10.00 Fair CLR 57.2 55.4 94% 29.99 0.0
06 20:55 N 6 10.00 Fair CLR 57.2 55.4 94% 29.99 0.0
06 20:35 N 6 10.00 Fair CLR 57.2 55.4 94% 29.97 0.0
06 20:15 N 7 10.00 A Few Clouds FEW029 59 55.4 88% 29.96 0.0
06 19:55 N 8 10.00 Overcast OVC029 60.8 55.4 83% 29.95 0.0
06 19:35 N 10 10.00 Overcast OVC027 60.8 55.4 83% 29.95 0.0
06 19:15 N 12 10.00 Overcast OVC025 60.8 55.4 83% 29.94 0.0
06 18:55 N 12 10.00 Overcast OVC023 60.8 55.4 62.4 53.8 83% 29.94 0.0
06 18:35 N 12 9.00 Overcast OVC025 60.8 57.2 88% 29.94 0.0
06 18:15 N 10 9.00 Overcast OVC025 60.8 55.4 83% 29.94 0.0
06 17:55 N 9 9.00 Overcast OVC023 60.8 55.4 83% 29.93 0.0
06 17:35 N 10 10.00 Overcast OVC023 60.8 55.4 83% 29.93 0.0
06 17:15 NE 9 10.00 Overcast OVC021 60.8 55.4 83% 29.92 0.0
06 16:55 N 8 10.00 Overcast OVC019 60.8 55.4 83% 29.92 0.0
06 16:35 N 9 10.00 Overcast OVC019 62.6 55.4 77% 29.93 0.0
06 16:15 N 9 10.00 Overcast OVC019 60.8 55.4 83% 29.93 0.0
06 15:55 NW 10 10.00 Overcast OVC017 60.8 55.4 83% 29.94 0.0
06 15:35 N 10 9.00 Overcast BKN013 OVC017 59 55.4 88% 29.94 0.0
06 15:15 N 12 9.00 Overcast OVC011 57.2 53.6 88% 29.95 0.0
06 14:55 N 14 9.00 Overcast OVC011 57.2 53.6 88% 29.95 0.0
06 14:35 N 15 9.00 Overcast OVC009 55.4 53.6 94% 29.95 0.0
06 14:15 N 13 9.00 Overcast OVC009 55.4 53.6 94% 29.96 0.0
06 13:55 N 13 8.00 Overcast OVC009 53.6 53.6 100% 29.96 0.0
06 13:35 N 16 8.00 Overcast OVC009 53.6 53.6 100% 29.97 0.0
06 13:15 N 15 9.00 Overcast OVC009 53.6 53.6 100% 29.96 0.0
06 12:55 N 16 8.00 Overcast OVC009 55.4 53.6 57.7 50.9 94% 29.96 0.0
06 12:35 N 12 9.00 Overcast OVC007 53.6 53.6 100% 29.96 0.0
06 12:15 N 10 9.00 Overcast OVC007 53.6 53.6 100% 29.97 0.0
06 11:55 N 7 9.00 Overcast OVC007 51.8 51.8 100% 29.96 0.0
06 11:35 N 20 8.00 Overcast OVC007 51.8 51.8 100% 29.92 0.0
06 11:15 N 17 8.00 Overcast OVC007 51.8 51.8 100% 29.94 0.0
06 10:55 NE 10 8.00 Light Drizzle OVC009 51.8 51.8 100% 29.93 0.0 0.03
06 10:35 N 13 6.00 Light Rain Fog/Mist BKN009 BKN013 51.8 51.8 100% 29.95 0.0
06 10:15 N 9 6.00 Light Rain Fog/Mist FEW055 FEW070 FEW110 51.8 51.8 100% 29.92 0.0
06 09:55 NE 13 6.00 Light Rain Fog/Mist SCT011 BKN065 OVC100 51.8 51.8 100% 29.92 0.0
06 09:35 N 18 8.00 Thunderstorm in Vicinity OVC009 51.8 51.8 100% 29.95 0.0
06 09:15 N 18 G 23 8.00 Thunderstorm in Vicinity OVC011 51.8 51.8 100% 29.96 0.0
06 08:55 N 18 G 23 8.00 Overcast OVC011 53.6 51.8 94% 29.96 0.0
06 08:35 N 20 8.00 Overcast OVC011 53.6 51.8 94% 29.92 0.0
06 08:15 N 15 8.00 Overcast OVC011 55.4 53.6 94% 29.9 0.0
06 07:55 N 16 8.00 Overcast OVC009 55.4 53.6 94% 29.9 0.0
06 07:35 N 14 8.00 Overcast OVC011 57.2 55.4 94% 29.88 0.0
06 07:15 N 15 9.00 Overcast OVC011 57.2 55.4 94% 29.88 0.0
06 06:55 N 15 9.00 Overcast OVC011 57.2 55.4 64.9 57.7 94% 29.87 0.0
06 06:35 N 14 10.00 Overcast OVC011 57.2 55.4 94% 29.87 0.0
06 05:55 N 12 10.00 Overcast OVC011 59 55.4 88% 29.85 0.0
06 05:35 N 12 10.00 Overcast OVC013 59 57.2 94% 29.84 0.0
06 05:15 N 13 10.00 Overcast OVC013 59 57.2 94% 29.84 0.0
Date Time (cdt) Wind (mph) Vis. (mi.) Weather Sky Cond. Air Dwpt Max. Min. Relative Humidity Wind Chill (°F) Heat Index (°F) altimeter (in) sea level (mb) 1 hr 3 hr 6 hr
6 hour
Temperature (ºF) Pressure Precipitation (in)